createdAt,value
2023-05-14T00:00:45.874Z,97641.50
2023-05-14T00:03:12.540Z,97645.44
2023-05-14T00:05:39.203Z,97644.63
2023-05-14T00:08:06.271Z,97643.84
2023-05-14T00:10:32.864Z,97638.88
2023-05-14T00:12:59.436Z,97564.47
2023-05-14T00:15:26.097Z,97640.19
2023-05-14T00:17:52.746Z,97555.78
2023-05-14T00:20:19.434Z,97634.06
2023-05-14T00:22:46.010Z,97631.88
2023-05-14T00:25:12.581Z,97639.75
2023-05-14T00:27:39.157Z,97613.72
2023-05-14T00:30:09.355Z,97617.69
2023-05-14T00:32:36.056Z,97616.09
2023-05-14T00:35:04.427Z,97609.28
2023-05-14T00:37:31.062Z,97611.97
2023-05-14T00:39:57.940Z,97617.53
2023-05-14T00:42:24.577Z,97611.97
2023-05-14T00:44:51.178Z,97622.06
2023-05-14T00:47:18.043Z,97622.50
2023-05-14T00:49:45.618Z,97620.75
2023-05-14T00:52:12.384Z,97621.38
2023-05-14T00:54:39.596Z,97589.63
2023-05-14T00:57:07.109Z,97613.91
2023-05-14T00:59:33.893Z,97603.09
2023-05-14T01:02:00.555Z,97606.88
2023-05-14T01:04:27.732Z,97599.00
2023-05-14T01:07:33.594Z,97597.81
2023-05-14T01:10:11.954Z,97593.81
2023-05-14T01:13:00.228Z,97592.06
2023-05-14T01:15:30.883Z,97603.66
2023-05-14T01:18:04.884Z,97599.28
2023-05-14T01:20:31.521Z,97594.91
2023-05-14T01:22:58.142Z,97594.19
2023-05-14T01:25:24.972Z,97564.38
2023-05-14T01:28:13.140Z,97593.16
2023-05-14T01:31:08.048Z,97516.41
2023-05-14T01:33:36.856Z,97589.41
2023-05-14T01:36:03.835Z,97554.47
2023-05-14T01:38:33.902Z,97589.81
2023-05-14T01:41:01.157Z,97536.00
2023-05-14T01:43:28.675Z,97594.91
2023-05-14T01:45:55.726Z,97602.00
2023-05-14T01:48:22.579Z,97585.47
2023-05-14T01:50:49.227Z,97580.00
2023-05-14T01:53:15.861Z,97581.59
2023-05-14T01:55:42.443Z,97576.13
2023-05-14T01:58:09.059Z,97573.78
2023-05-14T02:00:35.618Z,97580.94
2023-05-14T02:03:02.237Z,97493.16
2023-05-14T02:05:28.834Z,97580.94
2023-05-14T02:07:55.416Z,97585.31
2023-05-14T02:10:22.084Z,97583.66
2023-05-14T02:12:48.785Z,97578.34
2023-05-14T02:15:15.402Z,97586.22
2023-05-14T02:17:42.024Z,97597.09
2023-05-14T02:20:10.397Z,97524.59
2023-05-14T02:22:37.472Z,97504.31
2023-05-14T02:25:04.288Z,97553.53
2023-05-14T02:27:30.886Z,97580.00
2023-05-14T02:30:00.775Z,97574.00
2023-05-14T02:32:28.391Z,97572.41
2023-05-14T02:34:55.299Z,97566.06
2023-05-14T02:37:21.929Z,97578.75
2023-05-14T02:39:49.186Z,97561.69
2023-05-14T02:42:15.851Z,97589.94
2023-05-14T02:44:42.379Z,97585.56
2023-05-14T02:47:08.988Z,97527.28
2023-05-14T02:49:35.638Z,97582.94
2023-05-14T02:52:02.227Z,97582.59
2023-05-14T02:54:28.842Z,97558.56
2023-05-14T02:56:55.435Z,97584.09
2023-05-14T02:59:23.684Z,97582.50
2023-05-14T03:01:50.670Z,97581.81
2023-05-14T03:04:17.647Z,97552.03
2023-05-14T03:06:44.239Z,97586.59
2023-05-14T03:09:10.894Z,97580.13
2023-05-14T03:11:37.476Z,97577.06
2023-05-14T03:14:04.036Z,97579.66
2023-05-14T03:16:30.630Z,97584.03
2023-05-14T03:18:57.307Z,97514.16
2023-05-14T03:21:23.952Z,97576.50
2023-05-14T03:23:50.612Z,97576.63
2023-05-14T03:26:17.211Z,97572.72
2023-05-14T03:28:44.360Z,97529.81
2023-05-14T03:31:11.149Z,97573.72
2023-05-14T03:33:37.790Z,97576.78
2023-05-14T03:36:05.464Z,97526.25
2023-05-14T03:38:32.160Z,97582.31
2023-05-14T03:40:58.782Z,97579.41
2023-05-14T03:43:25.319Z,97588.50
2023-05-14T03:45:52.810Z,97586.09
2023-05-14T03:48:20.216Z,97590.44
2023-05-14T03:50:47.197Z,97581.94
2023-05-14T03:53:13.955Z,97586.03
2023-05-14T03:55:40.567Z,97590.16
2023-05-14T03:58:13.581Z,97594.16
2023-05-14T04:00:43.677Z,97588.91
2023-05-14T04:03:10.426Z,97592.34
2023-05-14T04:05:37.031Z,97580.31
2023-05-14T04:08:03.607Z,97585.69
2023-05-14T04:10:32.265Z,97600.19
2023-05-14T04:12:58.827Z,97550.78
2023-05-14T04:15:25.634Z,97605.72
2023-05-14T04:17:52.306Z,97608.00
2023-05-14T04:20:19.126Z,97592.47
2023-05-14T04:22:45.745Z,97484.47
2023-05-14T04:25:12.480Z,97593.69
2023-05-14T04:27:40.294Z,97589.19
2023-05-14T04:30:08.566Z,97591.47
2023-05-14T04:32:35.543Z,97587.50
2023-05-14T04:35:02.628Z,97567.03
2023-05-14T04:37:29.215Z,97566.34
2023-05-14T04:39:55.807Z,97579.28
2023-05-14T04:42:22.590Z,97476.28
2023-05-14T04:44:49.195Z,97568.31
2023-05-14T04:47:15.783Z,97566.88
2023-05-14T04:49:43.362Z,97574.97
2023-05-14T04:52:10.035Z,97565.69
2023-05-14T04:54:36.836Z,97558.88
2023-05-14T04:57:03.610Z,97567.97
2023-05-14T04:59:31.222Z,97579.25
2023-05-14T05:01:57.944Z,97592.22
2023-05-14T05:04:24.586Z,97589.91
2023-05-14T05:06:51.156Z,97605.09
2023-05-14T05:09:18.264Z,97592.31
2023-05-14T05:11:46.262Z,97600.22
2023-05-14T05:14:12.850Z,97596.56
2023-05-14T05:16:39.511Z,97580.38
2023-05-14T05:19:06.132Z,97508.41
2023-05-14T05:21:33.355Z,97531.88
2023-05-14T05:23:59.996Z,97600.84
2023-05-14T05:26:27.226Z,97606.22
2023-05-14T05:28:53.976Z,97590.84
2023-05-14T05:31:20.694Z,97602.94
2023-05-14T05:33:47.601Z,97627.63
2023-05-14T05:36:14.162Z,97631.84
2023-05-14T05:38:40.700Z,97570.13
2023-05-14T05:41:07.554Z,97638.50
2023-05-14T05:43:34.262Z,97613.09
2023-05-14T05:46:01.257Z,97649.47
2023-05-14T05:48:28.255Z,97703.13
2023-05-14T05:50:55.019Z,97643.19
2023-05-14T05:53:21.612Z,97631.13
2023-05-14T05:55:48.210Z,97641.06
2023-05-14T05:58:17.235Z,97656.06
2023-05-14T06:00:44.080Z,97655.81
2023-05-14T06:03:11.457Z,97628.69
2023-05-14T06:05:38.229Z,97640.75
2023-05-14T06:08:05.237Z,97591.31
2023-05-14T06:10:32.032Z,97628.19
2023-05-14T06:12:58.632Z,97628.00
2023-05-14T06:15:25.295Z,97634.38
2023-05-14T06:17:51.990Z,97627.22
2023-05-14T06:20:19.301Z,97642.75
2023-05-14T06:22:45.920Z,97651.13
2023-05-14T06:25:12.518Z,97644.53
2023-05-14T06:27:39.138Z,97637.53
2023-05-14T06:30:07.054Z,97572.94
2023-05-14T06:32:33.681Z,97650.25
2023-05-14T06:35:01.430Z,97640.66
2023-05-14T06:37:27.985Z,97642.78
2023-05-14T06:39:57.676Z,97655.06
2023-05-14T06:42:24.540Z,97640.06
2023-05-14T06:44:51.093Z,97652.88
2023-05-14T06:47:17.706Z,97667.41
2023-05-14T06:49:44.306Z,97522.97
2023-05-14T06:52:10.874Z,97661.41
2023-05-14T06:54:37.501Z,97662.50
2023-05-14T06:57:04.313Z,97671.72
2023-05-14T06:59:30.925Z,97690.69
2023-05-14T07:01:57.792Z,97694.69
2023-05-14T07:04:24.460Z,97688.28
2023-05-14T07:06:51.157Z,97645.00
2023-05-14T07:09:17.714Z,97681.50
2023-05-14T07:11:44.320Z,97679.34
2023-05-14T07:14:11.017Z,97697.03
2023-05-14T07:16:37.707Z,97683.13
2023-05-14T07:19:04.350Z,97695.03
2023-05-14T07:21:31.777Z,97625.28
2023-05-14T07:23:58.448Z,97661.91
2023-05-14T07:26:25.054Z,97694.75
2023-05-14T07:28:51.638Z,97692.31
2023-05-14T07:31:18.339Z,97694.28
2023-05-14T07:33:44.943Z,97679.50
2023-05-14T07:36:11.629Z,97651.00
2023-05-14T07:38:38.326Z,97700.31
2023-05-14T07:41:05.339Z,97645.03
2023-05-14T07:43:31.975Z,97697.59
2023-05-14T07:45:58.625Z,97681.25
2023-05-14T07:48:25.266Z,97690.09
2023-05-14T07:50:51.967Z,97682.88
2023-05-14T07:53:18.669Z,97674.44
2023-05-14T07:55:46.938Z,97613.06
2023-05-14T07:58:13.510Z,97677.28
2023-05-14T08:00:40.119Z,97674.16
2023-05-14T08:03:06.878Z,97689.34
2023-05-14T08:05:33.647Z,97638.94
2023-05-14T08:08:00.228Z,97695.75
2023-05-14T08:10:27.473Z,97708.53
2023-05-14T08:12:54.987Z,97684.41
2023-05-14T08:15:21.625Z,97715.69
2023-05-14T08:17:48.335Z,97666.94
2023-05-14T08:20:14.988Z,97681.28
2023-05-14T08:22:41.637Z,97674.88
2023-05-14T08:25:08.302Z,97663.28
2023-05-14T08:27:35.110Z,97701.69
2023-05-14T08:30:01.748Z,97705.34
2023-05-14T08:32:28.439Z,97664.53
2023-05-14T08:34:55.044Z,97677.34
2023-05-14T08:37:21.617Z,97656.53
2023-05-14T08:39:48.209Z,97733.38
2023-05-14T08:42:18.316Z,97684.34
2023-05-14T08:44:52.499Z,97710.00
2023-05-14T08:47:22.019Z,97735.16
2023-05-14T08:49:56.884Z,97740.34
2023-05-14T08:52:23.575Z,97737.97
2023-05-14T08:54:53.746Z,97703.81
2023-05-14T08:57:21.453Z,97750.94
2023-05-14T08:59:48.570Z,97758.38
2023-05-14T09:02:17.441Z,97753.72
2023-05-14T09:04:44.947Z,97694.91
2023-05-14T09:07:11.899Z,97749.38
2023-05-14T09:09:38.762Z,97746.47
2023-05-14T09:12:06.545Z,97758.50
2023-05-14T09:14:33.508Z,97733.44
2023-05-14T09:17:00.233Z,97771.47
2023-05-14T09:19:27.029Z,97777.38
2023-05-14T09:21:58.363Z,97772.88
2023-05-14T09:24:29.149Z,97757.22
2023-05-14T09:26:58.980Z,97762.78
2023-05-14T09:29:29.580Z,97773.78
2023-05-14T09:31:57.750Z,97531.47
2023-05-14T09:34:26.073Z,97693.91
2023-05-14T09:37:03.267Z,97743.59
2023-05-14T09:39:30.865Z,97736.53
2023-05-14T09:41:58.803Z,97734.91
2023-05-14T09:44:25.898Z,97689.78
2023-05-14T09:46:53.295Z,97631.59
2023-05-14T09:49:21.848Z,97726.31
2023-05-14T09:51:49.463Z,97716.53
2023-05-14T09:54:16.266Z,97671.28
2023-05-14T09:56:43.783Z,97656.44
2023-05-14T09:59:10.724Z,97721.22
2023-05-14T10:01:38.749Z,97715.88
2023-05-14T10:04:09.316Z,97693.50
2023-05-14T10:06:39.948Z,97715.81
2023-05-14T10:09:12.450Z,97725.78
2023-05-14T10:11:43.072Z,97701.59
2023-05-14T10:14:28.799Z,97677.66
2023-05-14T10:16:57.547Z,97640.19
2023-05-14T10:19:25.279Z,97686.53
2023-05-14T10:22:05.183Z,97688.97
2023-05-14T10:24:33.309Z,97699.59
2023-05-14T10:27:00.365Z,97684.53
2023-05-14T10:29:34.659Z,97646.25
2023-05-14T10:32:09.168Z,97693.75
2023-05-14T10:34:46.185Z,97664.22
2023-05-14T10:37:15.454Z,97677.50
2023-05-14T10:39:48.422Z,97667.44
2023-05-14T10:42:23.301Z,97663.94
2023-05-14T10:45:12.883Z,97617.00
2023-05-14T10:47:42.865Z,97684.22
2023-05-14T10:50:13.120Z,97669.31
2023-05-14T10:52:44.140Z,97654.44
2023-05-14T10:55:14.492Z,97634.16
2023-05-14T10:57:44.406Z,97649.72
2023-05-14T11:00:12.585Z,97645.75
2023-05-14T11:02:41.809Z,97596.59
2023-05-14T11:05:11.605Z,97645.22
2023-05-14T11:07:40.416Z,97638.88
2023-05-14T11:10:09.312Z,97648.88
2023-05-14T11:12:41.637Z,97618.88
2023-05-14T11:15:10.358Z,97638.13
2023-05-14T11:17:38.253Z,97626.13
2023-05-14T11:20:06.534Z,97626.13
2023-05-14T11:22:33.360Z,97607.72
2023-05-14T11:25:00.382Z,97615.22
2023-05-14T11:27:27.119Z,97614.03
2023-05-14T11:29:55.663Z,97614.00
2023-05-14T11:32:22.279Z,97621.22
2023-05-14T11:34:48.960Z,97626.84
2023-05-14T11:37:16.612Z,97624.50
2023-05-14T11:39:52.209Z,97628.03
2023-05-14T11:42:19.779Z,97629.03
2023-05-14T11:44:52.016Z,97582.94
2023-05-14T11:47:21.816Z,97618.91
2023-05-14T11:49:49.399Z,97631.91
2023-05-14T11:52:19.536Z,97606.41
2023-05-14T11:54:46.872Z,97616.94
2023-05-14T11:57:16.527Z,97607.34
2023-05-14T11:59:43.502Z,97605.28
2023-05-14T12:02:15.458Z,97602.06
2023-05-14T12:04:43.328Z,97563.84
2023-05-14T12:07:15.390Z,97584.53
2023-05-14T12:09:50.661Z,97587.56
2023-05-14T12:12:21.862Z,97593.09
2023-05-14T12:14:49.850Z,97604.13
2023-05-14T12:17:22.128Z,97609.50
2023-05-14T12:19:51.046Z,97609.91
2023-05-14T12:22:23.230Z,97599.25
2023-05-14T12:24:57.709Z,97594.44
2023-05-14T12:27:29.656Z,97600.75
2023-05-14T12:30:20.751Z,97598.63
2023-05-14T12:32:52.896Z,97606.06
2023-05-14T12:35:21.549Z,97602.19
2023-05-14T12:37:48.251Z,97589.34
2023-05-14T12:40:14.928Z,97582.47
2023-05-14T12:42:41.593Z,97579.25
2023-05-14T12:45:08.852Z,97579.41
2023-05-14T12:47:36.315Z,97588.53
2023-05-14T12:50:03.295Z,97596.09
2023-05-14T12:54:59.360Z,97572.66
2023-05-14T12:57:27.757Z,97579.84
2023-05-14T12:59:55.485Z,97535.44
2023-05-14T13:02:22.419Z,97570.22
2023-05-14T13:04:49.047Z,97507.50
2023-05-14T13:07:15.726Z,97562.75
2023-05-14T13:09:42.363Z,97557.56
2023-05-14T13:12:09.346Z,97551.25
2023-05-14T13:14:36.458Z,97468.44
2023-05-14T13:17:04.923Z,97543.28
2023-05-14T13:19:31.688Z,97536.50
2023-05-14T13:21:58.256Z,97536.53
2023-05-14T13:24:25.222Z,97538.09
2023-05-14T13:26:51.853Z,97501.28
2023-05-14T13:29:18.510Z,97515.66
2023-05-14T13:31:45.084Z,97462.91
2023-05-14T13:34:13.154Z,97514.88
2023-05-14T13:36:40.765Z,97490.88
2023-05-14T13:39:07.513Z,97459.28
2023-05-14T13:41:38.002Z,97511.13
2023-05-14T13:44:04.907Z,97538.06
2023-05-14T13:46:31.528Z,97518.91
2023-05-14T13:48:58.248Z,97519.72
2023-05-14T13:51:25.108Z,97501.31
2023-05-14T13:53:51.855Z,97506.91
2023-05-14T13:56:18.706Z,97509.28
2023-05-14T13:58:45.355Z,97440.53
2023-05-14T14:01:11.957Z,97509.56
2023-05-14T14:03:38.634Z,97507.16
2023-05-14T14:06:05.305Z,97513.94
2023-05-14T14:08:33.866Z,97441.19
2023-05-14T14:11:00.518Z,97495.72
2023-05-14T14:13:27.862Z,97490.53
2023-05-14T14:15:54.509Z,97499.50
2023-05-14T14:18:21.215Z,97423.59
2023-05-14T14:20:47.857Z,97501.00
2023-05-14T14:23:14.429Z,97490.56
2023-05-14T14:25:41.046Z,97489.94
2023-05-14T14:28:07.644Z,97503.34
2023-05-14T14:30:34.679Z,97483.97
2023-05-14T14:33:01.429Z,97508.44
2023-05-14T14:35:28.112Z,97502.06
2023-05-14T14:37:55.742Z,97504.06
2023-05-14T14:40:23.948Z,97496.09
2023-05-14T14:42:50.784Z,97499.72
2023-05-14T14:45:17.673Z,97497.09
2023-05-14T14:47:46.145Z,97496.75
2023-05-14T14:50:13.635Z,97500.91
2023-05-14T14:52:45.680Z,97493.03
2023-05-14T14:55:12.869Z,97466.66
2023-05-14T14:57:39.531Z,97481.53
2023-05-14T15:00:07.316Z,97421.78
2023-05-14T15:02:34.337Z,97473.88
2023-05-14T15:05:01.355Z,97463.13
2023-05-14T15:07:28.038Z,97454.03
2023-05-14T15:09:54.727Z,97472.28
2023-05-14T15:12:21.350Z,97469.19
2023-05-14T15:14:47.923Z,97469.53
2023-05-14T15:17:14.465Z,97463.59
2023-05-14T15:19:41.089Z,97440.19
2023-05-14T15:22:07.728Z,97444.53
2023-05-14T15:24:34.328Z,97449.19
2023-05-14T15:27:00.980Z,97447.13
2023-05-14T15:29:28.668Z,97348.97
2023-05-14T15:31:55.485Z,97447.25
2023-05-14T15:34:22.124Z,97448.88
2023-05-14T15:36:48.717Z,97453.94
2023-05-14T15:39:15.305Z,97453.34
2023-05-14T15:41:42.027Z,97441.31
2023-05-14T15:44:08.658Z,97370.81
2023-05-14T15:46:35.733Z,97437.38
2023-05-14T15:49:02.544Z,97439.72
2023-05-14T15:51:29.308Z,97434.97
2023-05-14T15:53:56.084Z,97440.53
2023-05-14T15:56:23.106Z,97365.41
2023-05-14T15:58:50.008Z,97442.34
2023-05-14T16:01:16.864Z,97434.16
2023-05-14T16:03:43.788Z,97433.09
2023-05-14T16:06:11.881Z,97431.59
2023-05-14T16:08:38.721Z,97431.19
2023-05-14T16:11:06.326Z,97429.72
2023-05-14T16:13:33.334Z,97427.38
2023-05-14T16:16:00.138Z,97425.41
2023-05-14T16:18:26.870Z,97419.84
2023-05-14T16:20:53.657Z,97430.22
2023-05-14T16:23:20.498Z,97432.56
2023-05-14T16:25:47.108Z,97418.56
2023-05-14T16:28:13.885Z,97424.84
2023-05-14T16:30:40.611Z,97355.28
2023-05-14T16:33:08.480Z,97416.03
2023-05-14T16:35:35.184Z,97421.69
2023-05-14T16:38:01.789Z,97420.03
2023-05-14T16:40:28.398Z,97426.06
2023-05-14T16:42:54.951Z,97430.06
2023-05-14T16:45:21.701Z,97403.28
2023-05-14T16:47:48.463Z,97399.31
2023-05-14T16:50:15.103Z,97418.19
2023-05-14T16:52:41.645Z,97421.00
2023-05-14T16:55:08.794Z,97434.56
2023-05-14T16:57:35.625Z,97432.06
2023-05-14T17:00:06.065Z,97435.31
2023-05-14T17:02:33.398Z,97440.09
2023-05-14T17:05:00.229Z,97439.97
2023-05-14T17:07:26.902Z,97434.50
2023-05-14T17:09:53.552Z,97436.84
2023-05-14T17:12:20.157Z,97423.97
2023-05-14T17:14:46.750Z,97432.00
2023-05-14T17:17:13.413Z,97430.31
2023-05-14T17:19:40.032Z,97430.78
2023-05-14T17:22:07.330Z,97424.06
2023-05-14T17:24:35.493Z,97418.34
2023-05-14T17:27:02.381Z,97335.75
2023-05-14T17:29:29.088Z,97166.84
2023-05-14T17:31:55.859Z,97413.53
2023-05-14T17:34:22.562Z,97419.09
2023-05-14T17:36:49.298Z,97415.97
2023-05-14T17:39:16.051Z,97407.22
2023-05-14T17:41:42.926Z,97414.44
2023-05-14T17:44:11.377Z,97391.84
2023-05-14T17:46:39.477Z,97424.75
2023-05-14T17:49:06.096Z,97432.63
2023-05-14T17:51:32.732Z,97436.63
2023-05-14T17:53:59.315Z,97446.19
2023-05-14T17:56:25.993Z,97410.88
2023-05-14T17:58:52.644Z,97452.56
2023-05-14T18:01:19.289Z,97444.97
2023-05-14T18:03:45.950Z,97446.91
2023-05-14T18:06:12.648Z,97409.16
2023-05-14T18:08:39.303Z,97442.78
2023-05-14T18:11:06.080Z,97438.84
2023-05-14T18:13:32.673Z,97393.03
2023-05-14T18:16:00.702Z,97293.75
2023-05-14T18:18:27.605Z,97425.94
2023-05-14T18:20:54.297Z,97442.31
2023-05-14T18:23:21.111Z,97445.09
2023-05-14T18:25:48.341Z,97440.72
2023-05-14T18:28:15.647Z,97365.88
2023-05-14T18:30:43.530Z,97401.84
2023-05-14T18:33:10.572Z,97434.78
2023-05-14T18:35:37.344Z,97454.66
2023-05-14T18:38:04.094Z,97398.53
2023-05-14T18:40:30.827Z,97434.56
2023-05-14T18:42:58.070Z,97430.56
2023-05-14T18:45:25.076Z,97431.41
2023-05-14T18:47:52.130Z,97365.22
2023-05-14T18:50:19.408Z,97426.16
2023-05-14T18:52:46.079Z,97373.03
2023-05-14T18:55:12.803Z,97428.09
2023-05-14T18:57:39.679Z,97410.63
2023-05-14T19:00:07.170Z,97405.84
2023-05-14T19:02:33.947Z,97384.66
2023-05-14T19:05:00.592Z,97401.47
2023-05-14T19:07:27.790Z,97408.19
2023-05-14T19:09:54.557Z,97390.63
2023-05-14T19:12:21.415Z,97326.59
2023-05-14T19:14:48.157Z,97391.88
2023-05-14T19:17:15.176Z,97352.25
2023-05-14T19:19:41.755Z,97340.59
2023-05-14T19:22:08.629Z,97362.63
2023-05-14T19:24:35.620Z,97367.84
2023-05-14T19:27:02.402Z,97324.16
2023-05-14T19:29:29.332Z,97384.16
2023-05-14T19:31:56.124Z,97378.59
2023-05-14T19:34:22.973Z,97369.34
2023-05-14T19:36:50.186Z,97369.81
2023-05-14T19:39:16.860Z,97376.56
2023-05-14T19:41:43.683Z,97294.22
2023-05-14T19:44:10.386Z,97268.13
2023-05-14T19:46:37.124Z,97340.94
2023-05-14T19:49:18.612Z,97356.94
2023-05-14T19:51:45.268Z,97384.84
2023-05-14T19:54:12.070Z,97292.25
2023-05-14T19:56:38.788Z,97383.47
2023-05-14T19:59:05.558Z,97406.28
2023-05-14T20:01:32.463Z,97398.25
2023-05-14T20:03:59.325Z,97391.53
2023-05-14T20:06:26.058Z,97337.09
2023-05-14T20:08:52.856Z,97341.53
2023-05-14T20:11:19.712Z,97374.50
2023-05-14T20:13:46.550Z,97369.75
2023-05-14T20:16:16.768Z,97378.28
2023-05-14T20:18:44.186Z,97385.22
2023-05-14T20:21:11.138Z,97327.75
2023-05-14T20:23:38.094Z,97371.56
2023-05-14T20:26:04.863Z,97370.81
2023-05-14T20:28:31.642Z,97364.72
2023-05-14T20:31:03.076Z,97377.97
2023-05-14T20:33:30.557Z,97376.50
2023-05-14T20:35:57.388Z,97363.94
2023-05-14T20:38:25.810Z,97363.88
2023-05-14T20:40:52.422Z,97362.25
2023-05-14T20:43:19.041Z,97347.59
2023-05-14T20:45:45.829Z,97349.31
2023-05-14T20:48:16.230Z,97367.59
2023-05-14T20:50:43.510Z,97362.09
2023-05-14T20:53:10.125Z,97356.16
2023-05-14T20:55:36.782Z,97274.84
2023-05-14T20:58:03.485Z,97343.91
2023-05-14T21:00:30.121Z,97332.94
2023-05-14T21:02:56.943Z,97329.00
2023-05-14T21:05:23.906Z,97322.28
2023-05-14T21:07:50.722Z,97324.81
2023-05-14T21:10:17.649Z,97303.34
2023-05-14T21:12:44.876Z,97216.94
2023-05-14T21:15:12.017Z,97304.75
2023-05-14T21:17:38.695Z,97262.66
2023-05-14T21:20:06.079Z,97204.50
2023-05-14T21:22:32.963Z,97270.97
2023-05-14T21:24:59.613Z,97302.91
2023-05-14T21:27:26.637Z,97293.41
2023-05-14T21:29:53.280Z,97287.88
2023-05-14T21:32:22.132Z,97273.25
2023-05-14T21:34:48.935Z,97250.78
2023-05-14T21:37:15.578Z,97297.13
2023-05-14T21:39:42.067Z,97297.91
2023-05-14T21:42:09.190Z,97304.19
2023-05-14T21:44:35.747Z,97290.63
2023-05-14T21:47:02.352Z,97290.19
2023-05-14T21:49:28.946Z,97213.78
2023-05-14T21:51:55.664Z,97185.88
2023-05-14T21:54:22.290Z,97268.78
2023-05-14T21:56:48.986Z,97270.66
2023-05-14T21:59:15.592Z,97222.88
2023-05-14T22:04:12.902Z,97277.13
2023-05-14T22:06:39.860Z,97225.34
2023-05-14T22:09:09.812Z,97227.75
2023-05-14T22:11:36.412Z,97265.41
2023-05-14T22:14:02.966Z,97216.75
2023-05-14T22:16:29.640Z,97267.16
2023-05-14T22:18:56.343Z,97268.72
2023-05-14T22:21:22.948Z,97207.69
2023-05-14T22:23:50.402Z,97259.25
2023-05-14T22:26:17.031Z,97256.13
2023-05-14T22:28:43.751Z,97256.13
2023-05-14T22:31:10.743Z,97246.78
2023-05-14T22:33:37.478Z,97197.22
2023-05-14T22:36:04.424Z,97238.03
2023-05-14T22:38:30.953Z,97248.06
2023-05-14T22:40:57.496Z,97236.19
2023-05-14T22:43:24.103Z,97241.00
2023-05-14T22:45:51.033Z,97249.72
2023-05-14T22:48:17.935Z,97234.25
2023-05-14T22:50:44.560Z,97225.94
2023-05-14T22:53:11.152Z,97196.72
2023-05-14T22:55:37.735Z,97128.47
2023-05-14T22:58:04.537Z,97228.31
2023-05-14T23:00:31.281Z,97228.63
2023-05-14T23:02:57.922Z,97221.56
2023-05-14T23:05:24.844Z,97221.53
2023-05-14T23:07:53.091Z,97173.66
2023-05-14T23:10:19.755Z,97222.72
2023-05-14T23:12:46.333Z,97178.84
2023-05-14T23:15:12.878Z,97210.06
2023-05-14T23:17:40.074Z,97165.38
2023-05-14T23:20:09.835Z,97211.81
2023-05-14T23:22:36.414Z,97214.19
2023-05-14T23:25:03.745Z,97209.47
2023-05-14T23:27:30.282Z,97204.59
2023-05-14T23:29:56.912Z,97207.03
2023-05-14T23:32:23.602Z,97213.41
2023-05-14T23:34:50.288Z,97200.28
2023-05-14T23:37:17.011Z,97204.59
2023-05-14T23:39:43.684Z,97200.19
2023-05-14T23:42:10.839Z,97208.53
2023-05-14T23:44:37.470Z,97206.94
2023-05-14T23:47:04.880Z,97206.19
2023-05-14T23:49:31.611Z,97193.47
2023-05-14T23:51:58.254Z,97198.25
2023-05-14T23:54:25.078Z,97190.38
2023-05-14T23:56:52.580Z,97188.66
2023-05-14T23:59:19.197Z,97119.84
